Time;durP1;ratioP1;P1;durP2;ratioP2;P2;SDS_P1;SDS_P2;PMS_P1;PMS_P2;Temp;Humidity;BMP_temperature;BMP_pressure;BME280_temperature;BME280_humidity;BME280_pressure;Samples;Min_cycle;Max_cycle;Signal;HPM_P1;HPM_P2
2022/04/21 00:01:27;;;;;;;1.80;1.70;;;8.00;50.10;7.40;97780.00;;;;5116603;28;20225;-77
2022/04/21 00:03:56;;;;;;;0.73;0.73;;;8.00;50.40;7.40;97758.00;;;;5116704;28;20572;-77
2022/04/21 00:06:24;;;;;;;1.50;1.40;;;7.90;50.60;7.20;97765.00;;;;5116561;28;20233;-78
2022/04/21 00:08:51;;;;;;;1.13;1.13;;;7.90;50.40;7.30;97770.00;;;;5098754;28;20609;-77
2022/04/21 00:11:18;;;;;;;1.33;1.33;;;7.80;51.10;7.10;97768.00;;;;5098822;28;20209;-77
2022/04/21 00:13:45;;;;;;;1.20;1.20;;;7.80;51.00;7.20;97765.00;;;;5116816;28;20540;-77
2022/04/21 00:16:12;;;;;;;1.73;1.63;;;7.80;51.40;7.30;97758.00;;;;5116683;28;20206;-77
2022/04/21 00:18:39;;;;;;;1.00;1.00;;;7.80;51.70;7.10;97762.00;;;;5116451;28;20227;-77
2022/04/21 00:21:07;;;;;;;1.53;1.50;;;7.70;52.00;7.20;97766.00;;;;5098313;28;20538;-77
2022/04/21 00:23:34;;;;;;;1.00;1.00;;;7.80;52.60;7.00;97761.00;;;;5115986;28;20674;-77
2022/04/21 00:26:04;;;;;;;1.40;1.30;;;7.70;51.80;7.10;97756.00;;;;5116295;28;20251;-77
2022/04/21 00:28:31;;;;;;;1.27;1.20;;;7.70;52.00;7.20;97750.00;;;;5116378;28;20257;-77
2022/04/21 00:30:58;;;;;;;1.63;1.53;;;7.70;52.40;7.10;97746.00;;;;5116310;28;20204;-77
2022/04/21 00:33:27;;;;;;;1.10;1.10;;;7.70;52.40;7.10;97746.00;;;;5116348;28;20205;-77
2022/04/21 00:35:54;;;;;;;0.90;0.90;;;7.60;52.30;7.10;97745.00;;;;5116355;28;20705;-76
2022/04/21 00:38:23;;;;;;;1.37;1.37;;;7.70;51.80;6.90;97741.00;;;;5116081;28;20211;-76
2022/04/21 00:40:50;;;;;;;1.13;1.03;;;7.50;52.30;6.70;97740.00;;;;5116123;28;20612;-76
2022/04/21 00:43:16;;;;;;;1.43;1.33;;;7.30;51.70;6.70;97743.00;;;;5116038;28;20716;-76
2022/04/21 00:45:44;;;;;;;0.97;0.97;;;7.30;53.00;6.60;97742.00;;;;5098160;28;20229;-76
2022/04/21 00:48:13;;;;;;;1.70;1.47;;;7.30;53.50;6.60;97737.00;;;;5115931;28;20280;-76
2022/04/21 00:50:40;;;;;;;1.33;1.30;;;7.20;54.10;6.60;97726.00;;;;5116044;28;20188;-77
2022/04/21 00:53:08;;;;;;;1.20;1.20;;;7.20;54.00;6.60;97736.00;;;;5116098;28;20220;-76
2022/04/21 00:55:38;;;;;;;1.57;1.47;;;7.20;54.00;6.60;97726.00;;;;5116041;28;20338;-76
2022/04/21 00:58:08;;;;;;;0.80;0.80;;;7.20;53.70;6.70;97725.00;;;;5115904;28;20555;-76
2022/04/21 01:00:35;;;;;;;1.57;1.47;;;7.30;53.90;6.40;97721.00;;;;5115976;28;20534;-77
2022/04/21 01:03:06;;;;;;;1.33;1.33;;;7.20;53.50;6.40;97723.00;;;;5116049;28;20272;-77
2022/04/21 01:05:33;;;;;;;1.03;1.03;;;7.20;54.40;6.60;97722.00;;;;5115834;28;20235;-77
2022/04/21 01:08:02;;;;;;;1.13;1.13;;;7.20;55.50;6.60;97722.00;;;;5097904;28;20215;-77
2022/04/21 01:10:35;;;;;;;1.00;1.00;;;7.30;54.90;6.70;97722.00;;;;5115703;28;20187;-77
2022/04/21 01:13:05;;;;;;;0.87;0.87;;;7.30;54.60;6.40;97727.00;;;;5115790;28;20225;-77
2022/04/21 01:15:31;;;;;;;1.33;1.27;;;7.10;53.70;6.30;97731.00;;;;5115870;28;20662;-76
2022/04/21 01:17:58;;;;;;;1.20;1.20;;;7.10;55.60;6.60;97725.00;;;;5115613;28;20218;-77
2022/04/21 01:20:26;;;;;;;1.20;1.10;;;7.20;55.30;6.40;97738.00;;;;5115443;28;20217;-76
2022/04/21 01:22:54;;;;;;;1.43;1.40;;;7.10;55.40;6.40;97731.00;;;;5115348;28;20209;-76
2022/04/21 01:25:22;;;;;;;1.33;1.33;;;7.10;55.70;6.50;97730.00;;;;5115408;28;20716;-77
2022/04/21 01:27:52;;;;;;;0.90;0.90;;;7.10;56.00;6.40;97726.00;;;;5115683;28;20530;-76
2022/04/21 01:30:18;;;;;;;2.90;2.10;;;7.00;55.20;6.30;97727.00;;;;5115603;28;20228;-77
2022/04/21 01:32:49;;;;;;;1.33;1.33;;;7.10;55.40;6.20;97720.00;;;;5115282;28;20214;-77
2022/04/21 01:35:18;;;;;;;1.03;1.03;;;6.90;55.80;6.40;97717.00;;;;5115376;28;20196;-77
2022/04/21 01:43:14;;;;;;;1.10;1.10;;;7.00;56.20;6.40;97713.00;;;;5115192;28;20201;-76
2022/04/21 01:45:41;;;;;;;1.10;1.10;;;7.00;55.70;6.40;97718.00;;;;5115381;28;20190;-77
2022/04/21 01:48:08;;;;;;;0.80;0.80;;;7.00;56.10;6.30;97709.00;;;;5115091;28;20288;-77
2022/04/21 01:50:37;;;;;;;1.63;1.37;;;6.90;55.40;6.30;97715.00;;;;5115099;28;20206;-77
2022/04/21 01:53:05;;;;;;;1.57;1.47;;;6.90;55.30;6.10;97713.00;;;;5115247;28;20284;-77
2022/04/21 01:55:31;;;;;;;1.53;1.43;;;6.80;55.20;6.10;97730.00;;;;5115588;28;20201;-76
2022/04/21 01:57:58;;;;;;;1.30;1.20;;;6.70;56.10;6.20;97709.00;;;;5118211;28;20304;-76
2022/04/21 02:00:25;;;;;;;1.13;1.13;;;6.80;56.40;6.10;97714.00;;;;5118071;28;20276;-77
2022/04/21 02:02:53;;;;;;;1.17;1.17;;;6.80;56.40;6.00;97714.00;;;;5102903;28;20199;-76
2022/04/21 02:05:20;;;;;;;0.97;0.97;;;6.70;56.60;6.10;97706.00;;;;5118640;28;20283;-77
2022/04/21 02:07:47;;;;;;;1.40;1.23;;;6.70;56.90;6.10;97705.00;;;;5115350;28;20517;-76
2022/04/21 02:10:17;;;;;;;2.57;1.20;;;6.70;56.40;6.10;97707.00;;;;5097472;28;20583;-77
2022/04/21 02:12:45;;;;;;;2.40;1.63;;;6.70;56.60;6.10;97710.00;;;;5097628;28;20195;-77
2022/04/21 02:15:12;;;;;;;0.93;0.93;;;6.70;57.20;6.20;97699.00;;;;5115186;28;20277;-77
2022/04/21 02:17:39;;;;;;;0.70;0.70;;;6.80;56.70;6.00;97704.00;;;;5115014;28;20309;-77
2022/04/21 02:20:09;;;;;;;1.40;1.37;;;6.70;56.70;6.00;97692.00;;;;5097174;28;20220;-77
2022/04/21 02:22:35;;;;;;;1.13;1.13;;;6.70;57.40;6.00;97695.00;;;;5097338;28;20198;-77
2022/04/21 02:25:03;;;;;;;1.20;1.20;;;6.60;57.30;5.80;97700.00;;;;5096916;28;20336;-76
2022/04/21 02:27:32;;;;;;;1.40;1.23;;;6.60;57.30;5.80;97690.00;;;;5114901;28;20237;-76
2022/04/21 02:30:01;;;;;;;1.10;1.10;;;6.50;57.90;5.90;97692.00;;;;5114771;28;20793;-77
2022/04/21 02:32:28;;;;;;;1.00;1.00;;;6.50;57.70;5.90;97691.00;;;;5114886;28;20193;-77
2022/04/21 02:34:54;;;;;;;1.63;1.53;;;6.50;57.90;5.80;97689.00;;;;5096930;28;20646;-77
2022/04/21 02:37:23;;;;;;;1.10;1.10;;;6.50;57.50;5.90;97680.00;;;;5114963;28;20211;-77
2022/04/21 02:39:50;;;;;;;2.23;2.03;;;6.50;58.10;5.70;97679.00;;;;5114786;28;20214;-77
2022/04/21 02:42:16;;;;;;;0.90;0.90;;;6.40;57.90;5.80;97688.00;;;;5114745;28;20194;-77
2022/04/21 02:44:46;;;;;;;0.90;0.90;;;6.40;57.80;5.70;97668.00;;;;5114279;28;20231;-77
2022/04/21 02:47:14;;;;;;;2.03;1.80;;;6.40;58.40;5.70;97679.00;;;;5114661;28;20277;-77
2022/04/21 02:49:45;;;;;;;1.40;1.30;;;6.40;58.40;5.80;97684.00;;;;5114735;28;20210;-78
2022/04/21 02:52:13;;;;;;;0.97;0.97;;;6.40;58.70;5.80;97674.00;;;;5114248;28;20282;-77
2022/04/21 02:57:30;;;;;;;1.13;1.10;;;6.40;58.10;5.70;97669.00;;;;5114481;28;20225;-77
2022/04/21 02:59:59;;;;;;;1.00;1.00;;;6.30;58.00;5.70;97669.00;;;;5114488;28;20244;-77
2022/04/21 03:02:26;;;;;;;0.70;0.70;;;6.40;57.80;5.60;97665.00;;;;5114655;28;20218;-77
2022/04/21 03:04:55;;;;;;;1.20;1.10;;;6.30;58.40;5.70;97669.00;;;;5096299;28;20541;-78
2022/04/21 03:07:22;;;;;;;0.83;0.83;;;6.40;58.60;5.70;97678.00;;;;5114296;28;20660;-77
2022/04/21 03:09:50;;;;;;;1.73;1.63;;;6.30;58.30;5.60;97667.00;;;;5114162;28;20566;-76
2022/04/21 03:12:16;;;;;;;1.37;1.33;;;6.30;58.00;5.60;97670.00;;;;5096635;28;20283;-78
2022/04/21 03:14:43;;;;;;;1.33;1.23;;;6.30;58.00;5.50;97661.00;;;;5114370;28;20203;-77
2022/04/21 03:17:12;;;;;;;1.80;1.70;;;6.20;58.40;5.40;97663.00;;;;5114329;28;20208;-78
2022/04/21 03:19:39;;;;;;;0.80;0.80;;;6.10;58.60;5.40;97656.00;;;;5114777;28;20308;-77
2022/04/21 03:24:54;;;;;;;0.93;0.93;;;6.10;59.40;5.40;97649.00;;;;5114438;28;20218;-76
2022/04/21 03:27:20;;;;;;;1.00;1.00;;;6.10;59.80;5.40;97643.00;;;;5114367;28;20198;-79
2022/04/21 03:29:50;;;;;;;0.73;0.73;;;6.10;59.80;5.40;97659.00;;;;5114276;28;20198;-77
2022/04/21 03:32:17;;;;;;;1.50;1.40;;;6.10;59.10;5.30;97648.00;;;;5114413;28;20200;-77
2022/04/21 03:34:44;;;;;;;1.33;1.23;;;6.00;59.10;5.30;97659.00;;;;5113852;28;20206;-78
2022/04/21 03:37:13;;;;;;;1.10;1.10;;;6.00;59.20;5.40;97662.00;;;;5113990;28;20277;-77
2022/04/21 03:39:42;;;;;;;1.10;1.10;;;6.10;60.00;5.20;97664.00;;;;5114204;28;20710;-78
2022/04/21 03:42:19;;;;;;;1.03;1.03;;;5.90;59.50;5.20;97632.00;;;;5114005;28;20210;-77
2022/04/21 03:44:46;;;;;;;0.97;0.97;;;5.90;60.00;5.20;97640.00;;;;5113720;28;20225;-77
2022/04/21 03:47:15;;;;;;;1.13;1.13;;;5.90;60.60;5.10;97662.00;;;;5113508;28;20277;-77
2022/04/21 03:49:42;;;;;;;1.10;1.10;;;5.80;59.40;5.20;97662.00;;;;5113522;28;20198;-77
2022/04/21 03:52:10;;;;;;;1.03;1.03;;;5.80;59.90;5.20;97656.00;;;;5113233;28;20241;-78
2022/04/21 03:54:39;;;;;;;1.83;1.73;;;5.80;59.70;5.20;97661.00;;;;5113388;28;20222;-77
2022/04/21 03:57:06;;;;;;;1.40;1.30;;;5.80;59.40;5.30;97654.00;;;;5114035;28;20313;-77
2022/04/21 03:59:36;;;;;;;1.00;1.00;;;5.80;59.50;5.20;97658.00;;;;5116621;28;20262;-77
2022/04/21 04:02:04;;;;;;;0.87;0.87;;;5.80;59.30;5.20;97633.00;;;;5098731;28;20217;-77
2022/04/21 04:04:36;;;;;;;1.30;1.30;;;5.80;60.60;5.20;97661.00;;;;5116717;28;20308;-77
2022/04/21 04:12:37;;;;;;;1.57;1.47;;;5.60;59.40;4.60;97648.00;;;;5116580;28;20194;-76
2022/04/21 04:15:07;;;;;;;1.67;1.57;;;5.40;60.00;4.70;97655.00;;;;5116637;28;20255;-77
2022/04/21 04:17:34;;;;;;;1.47;0.93;;;5.40;61.90;4.80;97651.00;;;;5116414;28;20275;-77
2022/04/21 04:20:01;;;;;;;1.03;1.03;;;5.50;61.30;4.80;97650.00;;;;5116362;28;20233;-77
2022/04/21 04:22:34;;;;;;;0.90;0.90;;;5.50;61.10;4.90;97645.00;;;;5116405;28;20197;-78
2022/04/21 04:25:01;;;;;;;0.93;0.93;;;5.50;61.60;4.90;97656.00;;;;5098722;28;20336;-77
2022/04/21 04:27:29;;;;;;;0.80;0.80;;;5.50;61.10;5.10;97656.00;;;;5098430;28;20274;-77
2022/04/21 04:29:55;;;;;;;1.33;1.33;;;5.60;61.10;5.10;97666.00;;;;5116568;28;20187;-77
2022/04/21 04:32:22;;;;;;;0.97;0.97;;;5.60;61.30;5.20;97657.00;;;;5116436;28;20206;-77
2022/04/21 04:34:49;;;;;;;3.03;1.30;;;5.70;60.40;5.10;97662.00;;;;5098674;28;20205;-77
2022/04/21 04:37:15;;;;;;;0.90;0.90;;;5.70;60.40;4.90;97662.00;;;;5116233;28;20282;-77
2022/04/21 04:39:43;;;;;;;1.70;1.13;;;5.60;60.20;5.00;97658.00;;;;5116215;28;20198;-77
2022/04/21 04:42:20;;;;;;;2.53;2.10;;;5.60;60.40;5.00;97650.00;;;;5116101;28;20190;-77
2022/04/21 04:46:34;;;;;;;1.13;1.13;;;5.60;60.30;4.90;97654.00;;;;5115904;28;20229;-78
2022/04/21 04:47:39;;;;;;;0.97;0.97;;;5.60;60.50;4.90;97651.00;;;;5115884;28;20194;-78
2022/04/21 04:50:09;;;;;;;1.17;1.17;;;5.60;61.40;4.90;97650.00;;;;5097775;28;20198;-77
2022/04/21 04:52:35;;;;;;;2.97;1.77;;;5.60;61.20;4.90;97653.00;;;;5098225;28;20232;-77
2022/04/21 04:55:07;;;;;;;1.20;1.20;;;5.60;61.80;5.00;97626.00;;;;5115949;28;20520;-77
2022/04/21 04:57:34;;;;;;;1.53;1.50;;;5.60;61.60;5.00;97653.00;;;;5116021;28;20256;-77
2022/04/21 05:00:00;;;;;;;1.13;1.00;;;5.60;61.70;5.00;97656.00;;;;5115667;28;20553;-79
2022/04/21 05:02:27;;;;;;;1.00;1.00;;;5.60;61.00;5.00;97651.00;;;;5115765;28;20649;-77
2022/04/21 05:04:53;;;;;;;0.70;0.70;;;5.70;61.60;5.00;97645.00;;;;5115558;28;20224;-77
2022/04/21 05:07:20;;;;;;;1.50;1.33;;;5.70;61.90;5.00;97650.00;;;;5097815;28;20289;-77
2022/04/21 05:09:47;;;;;;;2.07;1.87;;;5.70;61.70;5.10;97646.00;;;;5115298;28;20678;-77
2022/04/21 05:12:14;;;;;;;1.17;1.17;;;5.70;62.20;5.00;97650.00;;;;5097613;28;20249;-77
2022/04/21 05:14:43;;;;;;;1.60;1.50;;;5.80;61.40;5.10;97647.00;;;;5115463;28;20194;-78
2022/04/21 05:17:12;;;;;;;2.20;1.57;;;5.80;61.70;5.10;97654.00;;;;5115494;28;20296;-77
2022/04/21 05:19:39;;;;;;;1.50;1.40;;;5.70;61.90;5.10;97648.00;;;;5115488;28;20229;-77
2022/04/21 05:22:11;;;;;;;0.73;0.73;;;5.80;62.00;5.20;97651.00;;;;5115545;28;20213;-77
2022/04/21 05:24:40;;;;;;;0.90;0.90;;;5.80;61.70;5.20;97647.00;;;;5115365;28;20220;-78
2022/04/21 05:27:09;;;;;;;3.60;1.47;;;5.80;61.70;5.40;97650.00;;;;5115371;28;20194;-78
2022/04/21 05:32:28;;;;;;;1.90;1.77;;;6.10;61.80;5.50;97646.00;;;;5115204;28;20206;-77
2022/04/21 05:34:55;;;;;;;1.77;1.67;;;6.10;61.80;5.60;97642.00;;;;5097307;28;20344;-77
2022/04/21 05:37:23;;;;;;;1.13;1.13;;;6.10;61.50;5.40;97643.00;;;;5097173;28;20656;-77
2022/04/21 05:39:50;;;;;;;1.03;1.03;;;6.10;61.10;5.50;97643.00;;;;5115191;28;20187;-79
2022/04/21 05:42:23;;;;;;;2.00;1.90;;;6.10;60.90;5.70;97641.00;;;;5097487;28;20232;-78
2022/04/21 05:44:54;;;;;;;2.60;2.40;;;6.30;61.20;5.90;97649.00;;;;5097202;28;20605;-78
2022/04/21 05:47:25;;;;;;;1.73;1.63;;;6.40;61.20;6.00;97647.00;;;;5097187;28;20205;-78
2022/04/21 05:49:52;;;;;;;1.17;1.17;;;6.50;61.30;6.00;97647.00;;;;5114941;28;20622;-76
2022/04/21 05:52:23;;;;;;;1.70;1.53;;;6.60;61.00;5.90;97641.00;;;;5115103;28;20265;-78
2022/04/21 05:54:50;;;;;;;1.17;1.17;;;6.60;60.90;6.00;97648.00;;;;5114993;28;20202;-77
2022/04/21 05:57:17;;;;;;;1.80;1.70;;;6.60;61.30;6.10;97658.00;;;;5115173;28;20228;-78
2022/04/21 05:59:47;;;;;;;2.93;1.70;;;6.70;61.30;6.10;97651.00;;;;5115237;28;20210;-78
2022/04/21 06:02:14;;;;;;;1.83;1.70;;;6.70;61.10;6.20;97653.00;;;;5115123;28;20229;-77
2022/04/21 06:04:41;;;;;;;1.90;1.73;;;6.80;61.20;6.20;97634.00;;;;5114962;28;20189;-79
2022/04/21 06:07:07;;;;;;;1.73;1.63;;;6.90;61.20;6.30;97648.00;;;;5114673;28;20192;-77
2022/04/21 06:09:34;;;;;;;2.00;1.40;;;6.90;61.30;6.50;97647.00;;;;5096805;28;20720;-78
2022/04/21 06:12:04;;;;;;;1.23;1.20;;;7.10;61.30;6.50;97637.00;;;;5114860;28;20209;-77
2022/04/21 06:14:30;;;;;;;1.40;1.37;;;7.20;61.00;6.60;97608.00;;;;5114780;28;20200;-78
2022/04/21 06:16:58;;;;;;;1.73;1.60;;;7.30;61.40;6.80;97639.00;;;;5114558;28;20231;-78
2022/04/21 06:19:25;;;;;;;1.83;1.73;;;7.40;61.60;6.90;97613.00;;;;5113975;28;20194;-78
2022/04/21 06:21:54;;;;;;;1.40;1.40;;;7.50;61.30;7.10;97634.00;;;;5096344;28;20226;-78
2022/04/21 06:24:23;;;;;;;1.83;1.67;;;7.60;60.80;7.10;97638.00;;;;5096565;28;20264;-78
2022/04/21 06:26:49;;;;;;;1.17;1.17;;;7.70;60.70;7.20;97634.00;;;;5114543;28;20292;-78
2022/04/21 06:29:16;;;;;;;2.80;2.60;;;7.80;60.70;7.30;97638.00;;;;5114356;28;20227;-78
2022/04/21 06:31:43;;;;;;;1.40;0.97;;;7.90;61.10;7.50;97636.00;;;;5114303;28;20303;-78
2022/04/21 06:34:09;;;;;;;1.90;1.80;;;8.10;60.90;7.60;97625.00;;;;5114175;28;20202;-77
2022/04/21 06:36:37;;;;;;;2.47;2.30;;;8.20;60.90;7.80;97604.00;;;;5114230;28;20694;-78
2022/04/21 06:39:03;;;;;;;2.47;2.30;;;8.40;61.50;7.90;97630.00;;;;5114491;28;20213;-78
2022/04/21 06:41:30;;;;;;;1.17;1.17;;;8.40;61.80;8.00;97629.00;;;;5096489;28;20256;-75
2022/04/21 06:49:26;;;;;;;1.87;1.77;;;8.90;61.60;8.50;97630.00;;;;5114032;28;20221;-75
2022/04/21 06:51:53;;;;;;;0.90;0.90;;;9.00;60.50;8.60;97626.00;;;;5114070;28;20272;-76
2022/04/21 06:54:19;;;;;;;2.17;2.00;;;9.10;60.50;8.80;97627.00;;;;5114090;28;20209;-75
2022/04/21 06:56:48;;;;;;;1.90;1.80;;;9.30;59.90;8.80;97626.00;;;;5095909;28;20205;-76
2022/04/21 06:59:15;;;;;;;1.87;1.73;;;9.40;59.20;8.90;97633.00;;;;5095965;28;20212;-74
2022/04/21 07:01:46;;;;;;;1.73;1.63;;;9.40;59.00;9.10;97604.00;;;;5113748;28;20563;-74
2022/04/21 07:04:13;;;;;;;2.23;2.03;;;9.60;58.40;9.10;97641.00;;;;5114075;28;20241;-73
2022/04/21 07:06:40;;;;;;;1.10;1.10;;;9.60;57.90;9.10;97630.00;;;;5113870;28;20218;-74
2022/04/21 07:09:08;;;;;;;1.57;1.47;;;9.70;58.00;9.20;97635.00;;;;5096776;28;20208;-74
2022/04/21 07:11:34;;;;;;;1.23;1.23;;;9.80;57.60;9.40;97630.00;;;;5114044;28;20200;-73
2022/04/21 07:14:01;;;;;;;1.33;1.33;;;9.90;57.60;9.30;97644.00;;;;5113742;28;20291;-75
2022/04/21 07:16:27;;;;;;;5.80;2.30;;;9.90;56.40;9.50;97643.00;;;;5095823;28;20235;-75
2022/04/21 07:18:54;;;;;;;3.00;2.30;;;10.00;56.20;9.50;97636.00;;;;5095779;28;20208;-75
2022/04/21 07:21:20;;;;;;;0.87;0.87;;;10.10;55.60;9.60;97637.00;;;;5095808;28;20228;-74
2022/04/21 07:23:50;;;;;;;1.33;1.33;;;10.20;54.60;9.60;97640.00;;;;5095670;28;20688;-75
2022/04/21 07:26:17;;;;;;;1.13;1.13;;;10.20;54.60;9.70;97639.00;;;;5095591;28;20541;-74
2022/04/21 07:28:45;;;;;;;1.80;1.63;;;10.30;54.00;9.80;97627.00;;;;5113822;28;20272;-75
2022/04/21 07:31:11;;;;;;;18.57;2.77;;;10.30;54.00;9.80;97633.00;;;;5114614;28;20777;-73
2022/04/21 07:33:38;;;;;;;2.27;2.10;;;10.40;53.60;9.80;97629.00;;;;5116123;28;20665;-74
2022/04/21 07:36:05;;;;;;;0.70;0.70;;;10.50;54.00;10.10;97637.00;;;;5117132;28;20300;-74
2022/04/21 07:38:34;;;;;;;2.50;2.30;;;10.50;53.80;10.20;97631.00;;;;5117103;28;20667;-75
2022/04/21 07:41:01;;;;;;;2.17;2.07;;;10.70;53.40;10.30;97634.00;;;;5116882;28;20226;-75
2022/04/21 07:43:28;;;;;;;1.27;1.27;;;10.80;54.10;10.40;97620.00;;;;5117082;28;20278;-73
2022/04/21 07:45:55;;;;;;;3.13;2.80;;;10.90;52.60;10.50;97629.00;;;;5116846;28;20194;-74
2022/04/21 07:48:22;;;;;;;1.50;1.40;;;11.00;52.30;10.60;97625.00;;;;5117071;28;20208;-75
2022/04/21 07:50:49;;;;;;;2.17;1.93;;;11.10;52.40;10.70;97626.00;;;;5118216;28;20204;-76
2022/04/21 07:53:18;;;;;;;1.77;1.67;;;11.30;51.30;10.80;97623.00;;;;5099026;28;20222;-76
2022/04/21 07:55:46;;;;;;;2.40;1.87;;;11.30;50.50;10.70;97614.00;;;;5116870;28;20226;-75
2022/04/21 07:58:14;;;;;;;2.00;1.90;;;11.30;49.90;10.80;97626.00;;;;5116823;28;20198;-75
2022/04/21 08:00:41;;;;;;;2.80;2.57;;;11.40;49.80;11.00;97623.00;;;;5116703;28;20213;-76
2022/04/21 08:03:09;;;;;;;2.17;2.07;;;11.50;50.00;11.00;97613.00;;;;5098711;28;20290;-73
2022/04/21 08:05:36;;;;;;;2.20;2.00;;;11.50;49.30;11.00;97615.00;;;;5116698;28;20229;-73
2022/04/21 08:08:04;;;;;;;2.37;2.20;;;11.60;49.20;11.10;97611.00;;;;5116716;28;20217;-73
2022/04/21 08:10:30;;;;;;;2.03;1.93;;;11.60;48.50;11.20;97609.00;;;;5115922;28;20194;-74
2022/04/21 08:12:59;;;;;;;1.57;1.47;;;11.70;48.40;11.30;97590.00;;;;5098832;28;20237;-74
2022/04/21 08:15:27;;;;;;;1.30;1.30;;;11.80;47.90;11.20;97615.00;;;;5116483;28;20209;-74
2022/04/21 08:17:57;;;;;;;1.77;1.20;;;11.80;48.00;11.30;97620.00;;;;5116416;28;20205;-75
2022/04/21 08:20:25;;;;;;;2.17;2.00;;;11.90;49.60;11.60;97610.00;;;;5116386;28;20220;-74
2022/04/21 08:22:54;;;;;;;1.13;1.13;;;12.00;48.00;11.70;97612.00;;;;5116374;28;20193;-74
2022/04/21 08:33:37;;;;;;;3.37;2.73;;;12.50;45.90;12.20;97608.00;;;;5116322;28;20217;-76
2022/04/21 08:36:05;;;;;;;1.53;1.47;;;12.60;45.50;12.20;97605.00;;;;5116238;28;20269;-75
2022/04/21 08:38:33;;;;;;;1.07;1.07;;;12.70;45.20;12.20;97601.00;;;;5116138;28;20214;-75
2022/04/21 08:41:04;;;;;;;1.47;1.37;;;12.70;45.40;12.30;97602.00;;;;5116066;28;20309;-76
2022/04/21 08:43:33;;;;;;;1.30;1.30;;;12.80;45.80;12.40;97600.00;;;;5115576;28;20286;-75
2022/04/21 08:46:04;;;;;;;2.10;2.00;;;12.80;44.70;12.40;97607.00;;;;5116117;28;20202;-76
2022/04/21 08:48:33;;;;;;;2.23;2.13;;;12.90;45.20;12.40;97604.00;;;;5116757;28;20637;-74
2022/04/21 08:51:01;;;;;;;1.07;1.07;;;13.00;43.80;12.50;97601.00;;;;5119041;28;20234;-77
2022/04/21 08:53:29;;;;;;;2.67;1.87;;;13.00;43.80;12.50;97597.00;;;;5118735;28;20289;-75
2022/04/21 08:55:57;;;;;;;1.27;1.27;;;13.00;43.90;12.70;97591.00;;;;5118719;28;20198;-75
2022/04/21 08:58:23;;;;;;;2.23;2.13;;;13.10;43.60;12.80;97593.00;;;;5109746;28;20204;-76
2022/04/21 09:00:53;;;;;;;2.60;2.40;;;13.30;42.40;12.90;97583.00;;;;5119634;28;20217;-76
2022/04/21 09:03:22;;;;;;;1.07;1.07;;;13.40;42.00;13.20;97598.00;;;;5116235;28;20305;-76
2022/04/21 09:05:51;;;;;;;2.03;1.93;;;13.60;41.00;13.10;97590.00;;;;5116783;28;20220;-77
2022/04/21 09:08:21;;;;;;;1.90;1.80;;;13.60;40.90;13.30;97593.00;;;;5116196;28;20333;-73
2022/04/21 09:11:02;;;;;;;1.83;1.73;;;13.70;41.10;13.40;97588.00;;;;5116053;28;20230;-74
2022/04/21 09:13:33;;;;;;;1.67;1.57;;;13.90;39.60;13.60;97581.00;;;;5115670;28;20202;-73
2022/04/21 09:16:03;;;;;;;1.27;1.23;;;14.00;39.60;13.60;97589.00;;;;5115723;28;20285;-75
2022/04/21 09:18:37;;;;;;;1.30;1.30;;;14.10;40.10;13.70;97571.00;;;;5116213;28;20648;-75
2022/04/21 09:21:10;;;;;;;1.90;1.80;;;14.20;39.70;13.80;97585.00;;;;5097791;28;20220;-75
2022/04/21 09:23:37;;;;;;;1.30;1.30;;;14.30;39.30;13.90;97574.00;;;;5115442;28;20237;-75
2022/04/21 09:26:11;;;;;;;1.70;1.60;;;14.40;39.50;14.10;97585.00;;;;5115802;28;20366;-74
2022/04/21 09:28:39;;;;;;;1.27;1.27;;;14.50;38.50;14.20;97593.00;;;;5115356;28;20200;-76
2022/04/21 09:31:08;;;;;;;1.37;1.27;;;14.60;37.90;14.30;97591.00;;;;5115360;28;20197;-75
2022/04/21 09:33:37;;;;;;;1.80;1.70;;;14.80;37.70;14.30;97589.00;;;;5097134;28;20204;-74
2022/04/21 09:36:06;;;;;;;0.90;0.90;;;14.80;37.30;14.40;97584.00;;;;5097416;28;20347;-74
2022/04/21 09:38:34;;;;;;;1.27;1.27;;;14.80;37.80;14.60;97585.00;;;;5115244;28;20656;-75
2022/04/21 09:41:07;;;;;;;3.47;1.93;;;15.00;38.90;14.70;97579.00;;;;5115191;28;20218;-76
2022/04/21 09:43:37;;;;;;;1.50;1.40;;;15.10;37.50;14.70;97580.00;;;;5115326;28;20198;-76
2022/04/21 09:46:15;;;;;;;1.93;1.63;;;15.20;36.90;14.90;97577.00;;;;5115273;28;20194;-79
2022/04/21 09:48:46;;;;;;;1.77;1.63;;;15.30;37.20;15.00;97578.00;;;;5115003;28;20305;-75
2022/04/21 09:51:15;;;;;;;1.63;1.53;;;15.40;36.90;15.10;97572.00;;;;5115144;28;20201;-74
2022/04/21 09:53:52;;;;;;;1.20;1.03;;;15.50;35.20;15.00;97564.00;;;;5097040;28;20229;-75
2022/04/21 09:56:31;;;;;;;1.57;1.47;;;15.50;35.70;15.00;97567.00;;;;5114255;28;20193;-78
2022/04/21 09:59:02;;;;;;;1.43;1.33;;;15.50;37.20;15.20;97563.00;;;;5115224;28;20633;-75
2022/04/21 10:01:30;;;;;;;1.33;1.27;;;15.60;36.90;15.30;97559.00;;;;5097011;28;20403;-75
2022/04/21 10:04:04;;;;;;;0.70;0.70;;;15.70;36.90;15.50;97559.00;;;;5114955;28;20267;-74
2022/04/21 10:06:32;;;;;;;1.03;1.03;;;15.90;36.10;15.60;97553.00;;;;5114769;28;20186;-74
2022/04/21 10:08:59;;;;;;;0.60;0.60;;;16.00;37.10;15.60;97545.00;;;;5114747;28;20194;-76
2022/04/21 10:11:27;;;;;;;0.93;0.93;;;16.10;36.70;16.00;97547.00;;;;5097212;28;20209;-77
2022/04/21 10:13:56;;;;;;;1.07;1.07;;;16.30;35.30;16.00;97550.00;;;;5096791;28;20234;-76
2022/04/21 10:16:24;;;;;;;1.57;1.30;;;16.50;35.00;16.00;97541.00;;;;5114409;28;20247;-77
2022/04/21 10:18:55;;;;;;;1.10;1.10;;;16.50;35.00;16.20;97534.00;;;;5114762;28;20186;-79
2022/04/21 10:21:32;;;;;;;0.90;0.90;;;16.70;35.20;16.30;97530.00;;;;5114625;28;20224;-77
2022/04/21 10:23:59;;;;;;;0.93;0.93;;;16.60;34.20;16.50;97533.00;;;;5115537;28;20181;-78
2022/04/21 10:26:37;;;;;;;1.60;0.90;;;16.80;34.60;16.30;97524.00;;;;5116650;28;20218;-78
2022/04/21 10:29:15;;;;;;;0.97;0.97;;;16.70;34.50;16.30;97525.00;;;;5115290;28;20209;-78
2022/04/21 10:31:49;;;;;;;2.47;2.33;;;16.80;34.50;16.50;97529.00;;;;5114832;28;20285;-77
2022/04/21 10:34:37;;;;;;;0.60;0.60;;;16.90;34.20;16.60;97520.00;;;;5114533;28;20198;-77
2022/04/21 10:37:10;;;;;;;0.67;0.67;;;17.00;34.40;16.80;97524.00;;;;5113626;28;20241;-76
2022/04/21 10:39:37;;;;;;;0.70;0.70;;;17.10;34.90;16.90;97516.00;;;;5114766;28;20246;-77
2022/04/21 10:42:18;;;;;;;0.97;0.97;;;17.30;33.20;17.00;97510.00;;;;5114548;28;20294;-77
2022/04/21 10:44:49;;;;;;;1.30;1.30;;;17.40;33.50;17.00;97496.00;;;;5096576;28;20415;-77
2022/04/21 10:47:37;;;;;;;1.60;1.50;;;17.40;34.10;17.10;97470.00;;;;5096203;28;20596;-77
2022/04/21 10:50:15;;;;;;;0.93;0.93;;;17.50;32.80;17.00;97484.00;;;;5114491;28;20209;-78
2022/04/21 10:58:52;;;;;;;1.13;0.83;;;17.60;32.80;17.50;97468.00;;;;5114184;28;20198;-78
2022/04/21 11:01:28;;;;;;;0.93;0.93;;;17.90;32.90;17.90;97481.00;;;;5114095;28;20241;-77
2022/04/21 11:04:25;;;;;;;0.80;0.80;;;18.20;32.40;17.90;97465.00;;;;5114366;28;20193;-77
2022/04/21 11:07:05;;;;;;;2.20;1.53;;;18.30;31.40;17.90;97448.00;;;;5116209;28;20708;-79
2022/04/21 11:09:38;;;;;;;0.60;0.60;;;18.30;31.30;18.00;97430.00;;;;5117715;28;20208;-77
2022/04/21 11:12:06;;;;;;;1.27;1.27;;;18.30;31.60;17.80;97463.00;;;;5117429;28;20278;-77
2022/04/21 11:14:36;;;;;;;0.73;0.73;;;18.20;30.90;18.10;97454.00;;;;5117477;28;20324;-79
2022/04/21 11:17:06;;;;;;;0.60;0.60;;;18.30;31.00;18.70;97451.00;;;;5099554;28;20197;-79
2022/04/21 11:19:44;;;;;;;1.13;1.13;;;;;19.10;97463.00;;;;5099820;28;20300;-77
2022/04/21 11:22:13;;;;;;;0.53;0.53;;;19.30;29.20;19.50;97463.00;;;;5099437;28;20654;-75
2022/04/21 11:25:04;;;;;;;0.60;0.60;;;19.60;28.20;19.60;97455.00;;;;5099576;28;20235;-75
2022/04/21 11:27:41;;;;;;;1.53;1.13;;;19.90;28.10;19.60;97453.00;;;;5117466;28;20229;-76
2022/04/21 11:30:11;;;;;;;0.40;0.40;;;20.00;28.10;19.70;97443.00;;;;5117293;28;20288;-77
2022/04/21 11:32:38;;;;;;;0.70;0.70;;;20.10;28.40;20.30;97437.00;;;;5099428;28;20538;-76
2022/04/21 11:35:10;;;;;;;0.70;0.70;;;20.50;26.90;20.50;97425.00;;;;5099232;28;20202;-77
2022/04/21 11:37:57;;;;;;;0.90;0.90;;;20.70;26.30;20.80;97426.00;;;;5117230;28;20227;-78
2022/04/21 11:40:33;;;;;;;0.50;0.50;;;21.00;27.40;21.20;97415.00;;;;5117076;28;20663;-78
2022/04/21 11:43:04;;;;;;;0.60;0.60;;;21.40;26.20;21.60;97427.00;;;;5117097;28;20203;-77
2022/04/21 11:45:35;;;;;;;0.57;0.57;;;21.60;26.80;21.60;97439.00;;;;5117129;28;20258;-77
2022/04/21 11:48:08;;;;;;;2.00;0.87;;;21.80;24.80;21.20;97430.00;;;;5117055;28;20218;-77
2022/04/21 11:50:35;;;;;;;0.60;0.60;;;21.50;24.80;21.50;97415.00;;;;5099047;28;20665;-78
2022/04/21 11:53:12;;;;;;;1.00;0.97;;;21.60;24.50;21.70;97415.00;;;;5116926;28;20213;-79